Noojee Slivar, Victoria

7:37 PM AEST on July 05, 2015 (GMT +1000)
Neerim East, Australia | | Change Station
CLOSE
Current Station
Personal Weather Station
Location: Neerim East, VICTORIA
Elevation: 1181 ft
Nearby Weather Stations

Elev 1181 ft 37.95 °S, 146.00 °E | Updated 5 seconds ago

Clear
Clear
45.7 °F
Feels Like 43 °F
N
4.9
Wind Variable Wind from North
Gusts 10.4 mph

Today
High -- | Low -- °F
--% Chance of Precip.
Yesterday
High -- | Low -- °F
Precip. -- in
7:32 AM 5:09 PM
Waning Gibbous, 86% visible
Pressure 30.04 in
Visibility 6.2 miles
Clouds
Windchill 43 °F
Dew Point 40 °F
Humidity 80%
Rainfall 0.00 in
Snow Depth Not available.
UV 0.0 out of 12
Pollen Not available.
Air Quality Not available.
Flu Activity Not available.
METAR YMEN 050900Z AUTO 36012KT 9999 // NCD 10/04 Q1017

More Conditions Fewer Conditions

Pressure 30.04 in
Visibility 6.2 miles
Clouds
Windchill 43 °F
Dew Point 40 °F
Humidity 80%
Rainfall 0.00 in
Snow Depth Not available.
UV 0.0 out of 12
Pollen Not available.
Air Quality Not available.
Flu Activity Not available.
METAR YMEN 050900Z AUTO 36012KT 9999 // NCD 10/04 Q1017

More Conditions Fewer Conditions

10-Day Weather Forecast

×

Almanac

Astronomy

Jul. 05, 2015 Rise Set
Actual Time
Civil Twilight
Nautical Twilight
Astronomical Twilight
Moon
Length of Visible Light
Length of Day
Tomorrow will be .
, % of the Moon is Illuminated

Today's Extremes

Country Highs Country Lows

Community

WunderPhotos

Upload Photos

1,835,218 photos uploaded!

WunderBlogs® & News

Nearby

Air Quality

  Air Quality AQ Index Pollutant
Not available.

Snow Depth

Station Depth Elevation

Earthquake Activity

City Distance Mag. Time & Date
Minimum magnitude displayed is 2.5.

Coastal Water Temperatures

Place Temperature

Stations

Nearby Weather Stations

Station Location Temp. Windchill Dew Point Humidity Wind Precip. Elev Updated Type